createdAt,value
2019-02-08T00:26:49.458Z,1006.82
2019-02-08T00:26:50.032Z,1006.85
2019-02-08T00:26:50.648Z,1006.82
2019-02-08T00:26:51.253Z,1006.77
2019-02-08T00:26:51.833Z,1006.76
2019-02-08T00:26:52.435Z,1006.76
2019-02-08T00:26:53.030Z,1006.77
2019-02-08T00:26:53.630Z,1006.80
2019-02-08T00:27:47.109Z,1006.71
2019-02-08T00:27:47.688Z,1006.71
2019-02-08T00:27:48.288Z,1006.70
2019-02-08T00:27:48.884Z,1006.71
2019-02-08T00:27:49.488Z,1006.72
2019-02-08T00:27:50.085Z,1006.71
2019-02-08T00:27:50.685Z,1006.74
2019-02-08T00:27:51.291Z,1006.71
2019-02-08T00:28:45.789Z,1006.74
2019-02-08T00:28:46.392Z,1006.72
2019-02-08T00:28:46.964Z,1006.73
2019-02-08T00:28:47.561Z,1006.68
2019-02-08T00:28:48.160Z,1006.69
2019-02-08T00:28:48.789Z,1006.72
2019-02-08T00:28:49.362Z,1006.71
2019-02-08T00:28:49.958Z,1006.75
2019-02-08T00:29:43.449Z,1006.71
2019-02-08T00:29:44.040Z,1006.74
2019-02-08T00:29:44.616Z,1006.73
2019-02-08T00:29:45.215Z,1006.75
2019-02-08T00:29:45.815Z,1006.71
2019-02-08T00:29:46.414Z,1006.70
2019-02-08T00:29:47.018Z,1006.72
2019-02-08T00:29:47.612Z,1006.71
2019-02-08T00:30:41.093Z,1006.76
2019-02-08T00:30:41.668Z,1006.76
2019-02-08T00:30:42.271Z,1006.77
2019-02-08T00:30:42.868Z,1006.71
2019-02-08T00:30:43.468Z,1006.73
2019-02-08T00:30:44.065Z,1006.73
2019-02-08T00:30:44.668Z,1006.71
2019-02-08T00:30:45.266Z,1006.74
2019-02-08T00:31:38.742Z,1006.72
2019-02-08T00:31:39.327Z,1006.75
2019-02-08T00:31:39.925Z,1006.72
2019-02-08T00:31:40.525Z,1006.70
2019-02-08T00:31:41.134Z,1006.71
2019-02-08T00:31:41.720Z,1006.69
2019-02-08T00:31:42.320Z,1006.70
2019-02-08T00:31:42.919Z,1006.67
2019-02-08T00:32:37.418Z,1006.70
2019-02-08T00:32:37.994Z,1006.70
2019-02-08T00:32:38.596Z,1006.70
2019-02-08T00:32:39.193Z,1006.68
2019-02-08T00:32:39.794Z,1006.70
2019-02-08T00:32:40.412Z,1006.70
2019-02-08T00:32:40.993Z,1006.66
2019-02-08T00:32:41.592Z,1006.67
2019-02-08T00:33:35.075Z,1006.67
2019-02-08T00:33:35.647Z,1006.65
2019-02-08T00:33:36.253Z,1006.62
2019-02-08T00:33:36.846Z,1006.65
2019-02-08T00:33:37.446Z,1006.62
2019-02-08T00:33:38.047Z,1006.61
2019-02-08T00:33:38.645Z,1006.60
2019-02-08T00:33:39.246Z,1006.60
2019-02-08T00:34:33.747Z,1006.63
2019-02-08T00:34:34.323Z,1006.59
2019-02-08T00:34:34.921Z,1006.61
2019-02-08T00:34:35.521Z,1006.61
2019-02-08T00:34:36.121Z,1006.61
2019-02-08T00:34:36.720Z,1006.61
2019-02-08T00:34:37.324Z,1006.59
2019-02-08T00:34:37.920Z,1006.58
2019-02-08T00:35:32.425Z,1006.64
2019-02-08T00:35:33.018Z,1006.63
2019-02-08T00:35:33.598Z,1006.58
2019-02-08T00:35:34.196Z,1006.63
2019-02-08T00:35:34.797Z,1006.63
2019-02-08T00:35:35.396Z,1006.61
2019-02-08T00:35:35.996Z,1006.62
2019-02-08T00:35:36.595Z,1006.61
2019-02-08T00:36:31.097Z,1006.68
2019-02-08T00:36:31.674Z,1006.61
2019-02-08T00:36:32.275Z,1006.60
2019-02-08T00:36:32.875Z,1006.62
2019-02-08T00:36:33.473Z,1006.66
2019-02-08T00:36:34.072Z,1006.65
2019-02-08T00:36:34.672Z,1006.62
2019-02-08T00:36:35.273Z,1006.68
2019-02-08T00:37:28.752Z,1006.69
2019-02-08T00:37:29.328Z,1006.69
2019-02-08T00:37:29.925Z,1006.66
2019-02-08T00:37:30.526Z,1006.66
2019-02-08T00:37:31.126Z,1006.68
2019-02-08T00:37:31.725Z,1006.65
2019-02-08T00:37:32.325Z,1006.65
2019-02-08T00:37:32.925Z,1006.64
2019-02-08T00:38:27.426Z,1006.70
2019-02-08T00:38:28.001Z,1006.66
2019-02-08T00:38:28.602Z,1006.65
2019-02-08T00:38:29.201Z,1006.68
2019-02-08T00:38:29.801Z,1006.66
2019-02-08T00:38:30.400Z,1006.67
2019-02-08T00:38:31.000Z,1006.65
2019-02-08T00:38:31.601Z,1006.67
2019-02-08T00:39:26.102Z,1006.73
2019-02-08T00:39:26.678Z,1006.72
2019-02-08T00:39:27.278Z,1006.76
2019-02-08T00:39:27.876Z,1006.71
2019-02-08T00:39:28.477Z,1006.69
2019-02-08T00:39:29.076Z,1006.69
2019-02-08T00:39:29.676Z,1006.72
2019-02-08T00:39:30.276Z,1006.75
2019-02-08T00:40:24.777Z,1006.70
2019-02-08T00:40:25.353Z,1006.68
2019-02-08T00:40:25.952Z,1006.70
2019-02-08T00:40:26.552Z,1006.70
2019-02-08T00:40:27.152Z,1006.67
2019-02-08T00:40:27.751Z,1006.65
2019-02-08T00:40:28.888Z,1006.67
2019-02-08T00:40:28.952Z,1006.69
2019-02-08T00:41:23.454Z,1006.74
2019-02-08T00:41:24.028Z,1006.73
2019-02-08T00:41:24.629Z,1006.74
2019-02-08T00:41:25.229Z,1006.71
2019-02-08T00:41:25.828Z,1006.76
2019-02-08T00:41:26.429Z,1006.72
2019-02-08T00:41:27.028Z,1006.76
2019-02-08T00:41:27.626Z,1006.71
2019-02-08T00:42:21.106Z,1006.79
2019-02-08T00:42:21.682Z,1006.79
2019-02-08T00:42:22.286Z,1006.78
2019-02-08T00:42:22.881Z,1006.76
2019-02-08T00:42:23.481Z,1006.74
2019-02-08T00:42:24.080Z,1006.77
2019-02-08T00:42:24.680Z,1006.75
2019-02-08T00:42:25.281Z,1006.78
2019-02-08T00:43:18.760Z,1006.82
2019-02-08T00:43:19.345Z,1006.83
2019-02-08T00:43:19.932Z,1006.84
2019-02-08T00:43:20.532Z,1006.82
2019-02-08T00:43:21.134Z,1006.80
2019-02-08T00:43:21.732Z,1006.80
2019-02-08T00:43:22.334Z,1006.82
2019-02-08T00:43:22.933Z,1006.83
2019-02-08T00:44:17.436Z,1006.90
2019-02-08T00:44:18.008Z,1006.87
2019-02-08T00:44:18.608Z,1006.91
2019-02-08T00:44:19.208Z,1006.87
2019-02-08T00:44:19.808Z,1006.88
2019-02-08T00:44:20.420Z,1006.89
2019-02-08T00:44:21.007Z,1006.90
2019-02-08T00:44:21.607Z,1006.91
2019-02-08T00:45:16.109Z,1006.89
2019-02-08T00:45:16.684Z,1006.86
2019-02-08T00:45:17.283Z,1006.88
2019-02-08T00:45:17.883Z,1006.86
2019-02-08T00:45:18.483Z,1006.85
2019-02-08T00:45:19.085Z,1006.88
2019-02-08T00:45:19.684Z,1006.91
2019-02-08T00:45:20.284Z,1006.91
2019-02-08T00:46:13.765Z,1007.02
2019-02-08T00:46:14.335Z,1006.98
2019-02-08T00:46:14.943Z,1006.94
2019-02-08T00:46:15.537Z,1007.01
2019-02-08T00:46:16.134Z,1006.99
2019-02-08T00:46:16.737Z,1006.96
2019-02-08T00:46:17.333Z,1006.94
2019-02-08T00:46:17.934Z,1006.94
2019-02-08T00:47:11.413Z,1006.90
2019-02-08T00:47:11.988Z,1006.92
2019-02-08T00:47:12.588Z,1006.90
2019-02-08T00:47:13.187Z,1006.91
2019-02-08T00:47:13.788Z,1006.90
2019-02-08T00:47:14.388Z,1006.90
2019-02-08T00:47:14.990Z,1006.89
2019-02-08T00:47:15.588Z,1006.93
2019-02-08T00:48:10.090Z,1006.95
2019-02-08T00:48:10.664Z,1006.98
2019-02-08T00:48:11.263Z,1006.95
2019-02-08T00:48:11.863Z,1006.94
2019-02-08T00:48:12.462Z,1006.93
2019-02-08T00:48:13.062Z,1006.92
2019-02-08T00:48:13.662Z,1006.94
2019-02-08T00:48:14.262Z,1006.93
2019-02-08T00:49:07.743Z,1006.99
2019-02-08T00:49:08.315Z,1006.96
2019-02-08T00:49:08.916Z,1006.95
2019-02-08T00:49:09.519Z,1006.92
2019-02-08T00:49:10.115Z,1006.96
2019-02-08T00:49:10.715Z,1006.92
2019-02-08T00:49:11.315Z,1006.92
2019-02-08T00:49:11.917Z,1006.94
2019-02-08T00:50:06.417Z,1007.02
2019-02-08T00:50:06.991Z,1007.00
2019-02-08T00:50:07.590Z,1007.03
2019-02-08T00:50:08.190Z,1007.04
2019-02-08T00:50:08.794Z,1007.00
2019-02-08T00:50:09.389Z,1007.02
2019-02-08T00:50:09.990Z,1007.02
2019-02-08T00:50:10.591Z,1007.03
2019-02-08T00:51:04.068Z,1006.99
2019-02-08T00:51:04.644Z,1006.98
2019-02-08T00:51:05.244Z,1007.00
2019-02-08T00:51:05.843Z,1007.05
2019-02-08T00:51:06.443Z,1006.99
2019-02-08T00:51:07.043Z,1006.98
2019-02-08T00:51:07.642Z,1006.98
2019-02-08T00:51:08.243Z,1006.96
2019-02-08T00:52:01.719Z,1007.06
2019-02-08T00:52:02.294Z,1007.04
2019-02-08T00:52:02.896Z,1006.99
2019-02-08T00:52:03.494Z,1007.03
2019-02-08T00:52:04.093Z,1007.03
2019-02-08T00:52:04.692Z,1007.00
2019-02-08T00:52:05.294Z,1007.04
2019-02-08T00:52:05.897Z,1007.03
2019-02-08T00:53:00.395Z,1007.06
2019-02-08T00:53:00.973Z,1007.06
2019-02-08T00:53:01.575Z,1007.04
2019-02-08T00:53:02.185Z,1007.08
2019-02-08T00:53:02.770Z,1007.04
2019-02-08T00:53:03.371Z,1007.06
2019-02-08T00:53:03.969Z,1007.05
2019-02-08T00:53:04.569Z,1007.05
2019-02-08T00:53:58.046Z,1007.09
2019-02-08T00:53:58.622Z,1007.08
2019-02-08T00:53:59.222Z,1007.11
2019-02-08T00:53:59.826Z,1007.10
2019-02-08T00:54:00.422Z,1007.05
2019-02-08T00:54:01.023Z,1007.08
2019-02-08T00:54:01.622Z,1007.14
2019-02-08T00:54:02.221Z,1007.09
2019-02-08T00:54:56.727Z,1007.11
2019-02-08T00:54:57.301Z,1007.15
2019-02-08T00:54:57.896Z,1007.14
2019-02-08T00:54:58.500Z,1007.13
2019-02-08T00:54:59.097Z,1007.13
2019-02-08T00:54:59.697Z,1007.09
2019-02-08T00:55:00.296Z,1007.14
2019-02-08T00:55:00.896Z,1007.13
2019-02-08T00:55:55.398Z,1007.16
2019-02-08T00:55:55.974Z,1007.16
2019-02-08T00:55:56.573Z,1007.16
2019-02-08T00:55:57.175Z,1007.18
2019-02-08T00:55:57.773Z,1007.14
2019-02-08T00:55:58.372Z,1007.18
2019-02-08T00:55:58.972Z,1007.18
2019-02-08T00:55:59.573Z,1007.15
2019-02-08T00:56:53.053Z,1007.14
2019-02-08T00:56:53.626Z,1007.15
2019-02-08T00:56:54.224Z,1007.17
2019-02-08T00:56:54.825Z,1007.18
2019-02-08T00:56:55.427Z,1007.17
2019-02-08T00:56:56.024Z,1007.18
2019-02-08T00:56:56.624Z,1007.18
2019-02-08T00:56:57.223Z,1007.16
2019-02-08T00:57:51.726Z,1007.23
2019-02-08T00:57:52.304Z,1007.23
2019-02-08T00:57:52.900Z,1007.21
2019-02-08T00:57:53.500Z,1007.21
2019-02-08T00:57:54.101Z,1007.22
2019-02-08T00:57:54.699Z,1007.22
2019-02-08T00:57:55.298Z,1007.20
2019-02-08T00:57:55.907Z,1007.16
2019-02-08T00:58:50.405Z,1007.20
2019-02-08T00:58:50.976Z,1007.23
2019-02-08T00:58:51.577Z,1007.22
2019-02-08T00:58:52.176Z,1007.22
2019-02-08T00:58:52.777Z,1007.23
2019-02-08T00:58:53.380Z,1007.24
2019-02-08T00:58:53.974Z,1007.26
2019-02-08T00:58:54.576Z,1007.24
2019-02-08T00:59:49.077Z,1007.26
2019-02-08T00:59:49.652Z,1007.26
2019-02-08T00:59:50.252Z,1007.25
2019-02-08T00:59:50.852Z,1007.25
2019-02-08T00:59:51.452Z,1007.26
2019-02-08T00:59:52.052Z,1007.25
2019-02-08T00:59:52.652Z,1007.21
2019-02-08T00:59:53.252Z,1007.19
2019-02-08T01:00:47.754Z,1007.30
2019-02-08T01:00:48.328Z,1007.29
2019-02-08T01:00:48.927Z,1007.27
2019-02-08T01:00:49.528Z,1007.26
2019-02-08T01:00:50.127Z,1007.27
2019-02-08T01:00:50.729Z,1007.31
2019-02-08T01:00:51.327Z,1007.29
2019-02-08T01:00:51.928Z,1007.29
2019-02-08T01:01:46.429Z,1007.24
2019-02-08T01:01:47.003Z,1007.20
2019-02-08T01:01:47.602Z,1007.25
2019-02-08T01:01:48.203Z,1007.25
2019-02-08T01:01:48.803Z,1007.24
2019-02-08T01:01:49.403Z,1007.25
2019-02-08T01:01:50.005Z,1007.27
2019-02-08T01:01:50.602Z,1007.27
2019-02-08T01:02:45.105Z,1007.25
2019-02-08T01:02:45.680Z,1007.24
2019-02-08T01:02:46.281Z,1007.26
2019-02-08T01:02:46.879Z,1007.26
2019-02-08T01:02:47.481Z,1007.24
2019-02-08T01:02:48.079Z,1007.23
2019-02-08T01:02:48.684Z,1007.26
2019-02-08T01:02:49.280Z,1007.24
2019-02-08T01:03:43.781Z,1007.29
2019-02-08T01:03:44.354Z,1007.30
2019-02-08T01:03:44.955Z,1007.27
2019-02-08T01:03:45.553Z,1007.30
2019-02-08T01:03:46.154Z,1007.29
2019-02-08T01:03:46.754Z,1007.26
2019-02-08T01:03:47.358Z,1007.27
2019-02-08T01:03:47.957Z,1007.28
2019-02-08T01:04:42.458Z,1007.26
2019-02-08T01:04:43.032Z,1007.31
2019-02-08T01:04:43.631Z,1007.29
2019-02-08T01:04:44.231Z,1007.28
2019-02-08T01:04:44.830Z,1007.28
2019-02-08T01:04:45.430Z,1007.34
2019-02-08T01:04:46.031Z,1007.28
2019-02-08T01:04:46.630Z,1007.31
2019-02-08T01:05:40.114Z,1007.30
2019-02-08T01:05:40.684Z,1007.28
2019-02-08T01:05:41.286Z,1007.26
2019-02-08T01:05:41.910Z,1007.26
2019-02-08T01:05:42.482Z,1007.26
2019-02-08T01:05:43.082Z,1007.30
2019-02-08T01:05:43.685Z,1007.27
2019-02-08T01:05:44.282Z,1007.31
2019-02-08T01:06:37.759Z,1007.30
2019-02-08T01:06:38.338Z,1007.33
2019-02-08T01:06:38.934Z,1007.28
2019-02-08T01:06:39.534Z,1007.27
2019-02-08T01:06:40.134Z,1007.31
2019-02-08T01:06:40.733Z,1007.28
2019-02-08T01:06:41.337Z,1007.23
2019-02-08T01:06:41.934Z,1007.26
2019-02-08T01:07:35.412Z,1007.29
2019-02-08T01:07:35.987Z,1007.28
2019-02-08T01:07:36.586Z,1007.30
2019-02-08T01:07:37.187Z,1007.31
2019-02-08T01:07:37.786Z,1007.31
2019-02-08T01:07:38.386Z,1007.31
2019-02-08T01:07:38.987Z,1007.29
2019-02-08T01:07:39.585Z,1007.28
2019-02-08T01:08:33.064Z,1007.32
2019-02-08T01:08:33.640Z,1007.32
2019-02-08T01:08:34.237Z,1007.32
2019-02-08T01:08:34.838Z,1007.31
2019-02-08T01:08:35.438Z,1007.35
2019-02-08T01:08:36.039Z,1007.36
2019-02-08T01:08:36.637Z,1007.33
2019-02-08T01:08:37.238Z,1007.31
2019-02-08T01:09:30.716Z,1007.31
2019-02-08T01:09:31.290Z,1007.30
2019-02-08T01:09:31.890Z,1007.33
2019-02-08T01:09:32.489Z,1007.32
2019-02-08T01:09:33.089Z,1007.28
2019-02-08T01:09:33.690Z,1007.32
2019-02-08T01:09:34.291Z,1007.32
2019-02-08T01:09:34.888Z,1007.30
2019-02-08T01:10:28.366Z,1007.35
2019-02-08T01:10:28.942Z,1007.33
2019-02-08T01:10:29.543Z,1007.31
2019-02-08T01:10:30.143Z,1007.32
2019-02-08T01:10:30.742Z,1007.32
2019-02-08T01:10:31.340Z,1007.31
2019-02-08T01:10:31.940Z,1007.31
2019-02-08T01:10:32.540Z,1007.29
2019-02-08T01:11:27.045Z,1007.35
2019-02-08T01:11:27.617Z,1007.35
2019-02-08T01:11:28.217Z,1007.35
2019-02-08T01:11:28.816Z,1007.37
2019-02-08T01:11:29.416Z,1007.35
2019-02-08T01:11:30.019Z,1007.35
2019-02-08T01:11:30.617Z,1007.34
2019-02-08T01:11:31.215Z,1007.35
2019-02-08T01:12:25.719Z,1007.33
2019-02-08T01:12:26.292Z,1007.34
2019-02-08T01:12:26.893Z,1007.32
2019-02-08T01:12:27.492Z,1007.35
2019-02-08T01:12:28.091Z,1007.36
2019-02-08T01:12:28.692Z,1007.34
2019-02-08T01:12:29.291Z,1007.36
2019-02-08T01:12:29.891Z,1007.32
2019-02-08T01:13:23.370Z,1007.32
2019-02-08T01:13:23.945Z,1007.36
2019-02-08T01:13:24.545Z,1007.37
2019-02-08T01:13:25.145Z,1007.32
2019-02-08T01:13:25.745Z,1007.35
2019-02-08T01:13:26.344Z,1007.37
2019-02-08T01:13:28.460Z,1007.38
2019-02-08T01:13:28.523Z,1007.36
2019-02-08T01:14:21.022Z,1007.34
2019-02-08T01:14:21.596Z,1007.36
2019-02-08T01:14:22.196Z,1007.30
2019-02-08T01:14:22.797Z,1007.33
2019-02-08T01:14:23.396Z,1007.37
2019-02-08T01:14:23.995Z,1007.33
2019-02-08T01:14:24.596Z,1007.36
2019-02-08T01:14:25.197Z,1007.35
2019-02-08T01:15:19.698Z,1007.37
2019-02-08T01:15:20.270Z,1007.36
2019-02-08T01:15:20.873Z,1007.35
2019-02-08T01:15:21.470Z,1007.35
2019-02-08T01:15:22.070Z,1007.36
2019-02-08T01:15:22.670Z,1007.36
2019-02-08T01:15:23.270Z,1007.35
2019-02-08T01:15:23.870Z,1007.38
2019-02-08T01:16:17.348Z,1007.38
2019-02-08T01:16:17.924Z,1007.41
2019-02-08T01:16:18.523Z,1007.39
2019-02-08T01:16:19.125Z,1007.39
2019-02-08T01:16:19.722Z,1007.40
2019-02-08T01:16:20.323Z,1007.41
2019-02-08T01:16:20.922Z,1007.39
2019-02-08T01:16:21.524Z,1007.43
2019-02-08T01:17:15.000Z,1007.32
2019-02-08T01:17:15.576Z,1007.34
2019-02-08T01:17:16.176Z,1007.33
2019-02-08T01:17:16.775Z,1007.31
2019-02-08T01:17:17.378Z,1007.34
2019-02-08T01:17:17.974Z,1007.34
2019-02-08T01:17:18.574Z,1007.30
2019-02-08T01:17:19.174Z,1007.33
2019-02-08T01:18:13.677Z,1007.37
2019-02-08T01:18:14.250Z,1007.34
2019-02-08T01:18:14.850Z,1007.35
2019-02-08T01:18:15.451Z,1007.36
2019-02-08T01:18:16.051Z,1007.36
2019-02-08T01:18:16.652Z,1007.33
2019-02-08T01:18:17.250Z,1007.32
2019-02-08T01:18:17.850Z,1007.36
2019-02-08T01:19:11.327Z,1007.38
2019-02-08T01:19:11.903Z,1007.37
2019-02-08T01:19:12.503Z,1007.37
2019-02-08T01:19:13.103Z,1007.40
2019-02-08T01:19:13.707Z,1007.38
2019-02-08T01:19:14.302Z,1007.39
2019-02-08T01:19:14.903Z,1007.39
2019-02-08T01:19:15.503Z,1007.40
2019-02-08T01:20:10.005Z,1007.38
2019-02-08T01:20:10.579Z,1007.39
2019-02-08T01:20:11.178Z,1007.40
2019-02-08T01:20:11.778Z,1007.38
2019-02-08T01:20:12.378Z,1007.40
2019-02-08T01:20:12.978Z,1007.39
2019-02-08T01:20:13.578Z,1007.39
2019-02-08T01:20:14.177Z,1007.36
2019-02-08T01:21:08.679Z,1007.45
2019-02-08T01:21:09.254Z,1007.42
2019-02-08T01:21:09.854Z,1007.40
2019-02-08T01:21:10.453Z,1007.45
2019-02-08T01:21:11.053Z,1007.43
2019-02-08T01:21:11.653Z,1007.40
2019-02-08T01:21:12.252Z,1007.41
2019-02-08T01:21:12.852Z,1007.45
2019-02-08T01:22:07.355Z,1007.41
2019-02-08T01:22:07.930Z,1007.42
2019-02-08T01:22:08.529Z,1007.40
2019-02-08T01:22:09.129Z,1007.41
2019-02-08T01:22:09.729Z,1007.40
2019-02-08T01:22:10.329Z,1007.40
2019-02-08T01:22:10.930Z,1007.43
2019-02-08T01:22:11.529Z,1007.44
2019-02-08T01:23:05.008Z,1007.47
2019-02-08T01:23:05.584Z,1007.49
2019-02-08T01:23:06.183Z,1007.44
2019-02-08T01:23:06.782Z,1007.43
2019-02-08T01:23:07.383Z,1007.49
2019-02-08T01:23:07.983Z,1007.50
2019-02-08T01:23:08.583Z,1007.46
2019-02-08T01:23:09.185Z,1007.46
2019-02-08T01:24:03.684Z,1007.40
2019-02-08T01:24:04.258Z,1007.46
2019-02-08T01:24:04.857Z,1007.44
2019-02-08T01:24:05.458Z,1007.44
2019-02-08T01:24:06.058Z,1007.45
2019-02-08T01:24:06.656Z,1007.44
2019-02-08T01:24:07.256Z,1007.46
2019-02-08T01:24:07.856Z,1007.47
2019-02-08T01:25:01.335Z,1007.46
2019-02-08T01:25:01.913Z,1007.45
2019-02-08T01:25:02.511Z,1007.49
2019-02-08T01:25:03.111Z,1007.46
2019-02-08T01:25:03.710Z,1007.45
2019-02-08T01:25:04.310Z,1007.45
2019-02-08T01:25:04.911Z,1007.42
2019-02-08T01:25:05.509Z,1007.44
2019-02-08T01:26:00.011Z,1007.44
2019-02-08T01:26:00.585Z,1007.48
2019-02-08T01:26:01.184Z,1007.46
2019-02-08T01:26:01.784Z,1007.43
2019-02-08T01:26:02.386Z,1007.43
2019-02-08T01:26:02.984Z,1007.45
2019-02-08T01:26:03.583Z,1007.41
2019-02-08T01:26:04.188Z,1007.41
2019-02-08T01:26:57.661Z,1007.41
2019-02-08T01:26:58.244Z,1007.43
2019-02-08T01:26:58.837Z,1007.43
2019-02-08T01:26:59.437Z,1007.45
2019-02-08T01:27:00.038Z,1007.45
2019-02-08T01:27:00.636Z,1007.44
2019-02-08T01:27:01.238Z,1007.44
2019-02-08T01:27:01.837Z,1007.46
2019-02-08T01:27:56.386Z,1007.41
2019-02-08T01:27:56.911Z,1007.44
2019-02-08T01:27:57.514Z,1007.42
2019-02-08T01:27:58.111Z,1007.43
2019-02-08T01:27:58.712Z,1007.41
2019-02-08T01:27:59.313Z,1007.45
2019-02-08T01:27:59.912Z,1007.41
2019-02-08T01:28:00.513Z,1007.46
2019-02-08T01:28:53.989Z,1007.42
2019-02-08T01:28:54.564Z,1007.38
2019-02-08T01:28:55.165Z,1007.42
2019-02-08T01:28:55.763Z,1007.46
2019-02-08T01:28:56.365Z,1007.43
2019-02-08T01:28:56.970Z,1007.43
2019-02-08T01:28:57.564Z,1007.42
2019-02-08T01:28:58.165Z,1007.43
2019-02-08T01:29:51.640Z,1007.48
2019-02-08T01:29:52.217Z,1007.46
2019-02-08T01:29:52.817Z,1007.45
2019-02-08T01:29:53.418Z,1007.42
2019-02-08T01:29:54.017Z,1007.44
2019-02-08T01:29:54.616Z,1007.42
2019-02-08T01:29:55.215Z,1007.45
2019-02-08T01:29:55.818Z,1007.41
2019-02-08T01:30:49.294Z,1007.47
2019-02-08T01:30:49.869Z,1007.50
2019-02-08T01:30:50.469Z,1007.48
2019-02-08T01:30:51.069Z,1007.48
2019-02-08T01:30:51.668Z,1007.48
2019-02-08T01:30:52.267Z,1007.48
2019-02-08T01:30:52.869Z,1007.47
2019-02-08T01:30:53.468Z,1007.50
2019-02-08T01:31:47.973Z,1007.39
2019-02-08T01:31:48.543Z,1007.45
2019-02-08T01:31:49.142Z,1007.41
2019-02-08T01:31:49.741Z,1007.41
2019-02-08T01:31:50.342Z,1007.39
2019-02-08T01:31:50.945Z,1007.44
2019-02-08T01:31:51.541Z,1007.41
2019-02-08T01:31:52.141Z,1007.43
2019-02-08T01:32:46.644Z,1007.45
2019-02-08T01:32:47.219Z,1007.42
2019-02-08T01:32:47.820Z,1007.44
2019-02-08T01:32:48.419Z,1007.43
2019-02-08T01:32:49.018Z,1007.44
2019-02-08T01:32:49.618Z,1007.42
2019-02-08T01:32:50.218Z,1007.47
2019-02-08T01:32:50.817Z,1007.44
2019-02-08T01:33:45.321Z,1007.42
2019-02-08T01:33:45.895Z,1007.40
2019-02-08T01:33:46.495Z,1007.43
2019-02-08T01:33:47.095Z,1007.41
2019-02-08T01:33:47.697Z,1007.40
2019-02-08T01:33:48.292Z,1007.42
2019-02-08T01:33:48.893Z,1007.42
2019-02-08T01:33:49.492Z,1007.41
2019-02-08T01:34:44.002Z,1007.46
2019-02-08T01:34:44.570Z,1007.43
2019-02-08T01:34:45.176Z,1007.45
2019-02-08T01:34:45.769Z,1007.46
2019-02-08T01:34:46.369Z,1007.43
2019-02-08T01:34:46.968Z,1007.42
2019-02-08T01:34:47.573Z,1007.42
2019-02-08T01:34:48.169Z,1007.42
2019-02-08T01:35:41.647Z,1007.43
2019-02-08T01:35:42.223Z,1007.44
2019-02-08T01:35:42.822Z,1007.46
2019-02-08T01:35:43.423Z,1007.45
2019-02-08T01:35:44.024Z,1007.43
2019-02-08T01:35:44.622Z,1007.45
2019-02-08T01:35:45.222Z,1007.43
2019-02-08T01:35:45.823Z,1007.41
2019-02-08T01:36:39.298Z,1007.54
2019-02-08T01:36:39.874Z,1007.51
2019-02-08T01:36:40.475Z,1007.49
2019-02-08T01:36:41.074Z,1007.50
2019-02-08T01:36:41.674Z,1007.50
2019-02-08T01:36:42.273Z,1007.53
2019-02-08T01:36:42.873Z,1007.51
2019-02-08T01:36:43.474Z,1007.49
2019-02-08T01:37:37.974Z,1007.46
2019-02-08T01:37:38.549Z,1007.46
2019-02-08T01:37:39.149Z,1007.48
2019-02-08T01:37:39.748Z,1007.48
2019-02-08T01:37:40.349Z,1007.45
2019-02-08T01:37:40.948Z,1007.47
2019-02-08T01:37:41.549Z,1007.45
2019-02-08T01:37:42.150Z,1007.43
2019-02-08T01:38:36.651Z,1007.47
2019-02-08T01:38:37.225Z,1007.49
2019-02-08T01:38:37.823Z,1007.45
2019-02-08T01:38:38.424Z,1007.49
2019-02-08T01:38:39.023Z,1007.50
2019-02-08T01:38:39.623Z,1007.48
2019-02-08T01:38:40.226Z,1007.45
2019-02-08T01:38:40.825Z,1007.44
2019-02-08T01:39:35.326Z,1007.42
2019-02-08T01:39:35.901Z,1007.44
2019-02-08T01:39:36.500Z,1007.42
2019-02-08T01:39:37.099Z,1007.42
2019-02-08T01:39:37.699Z,1007.43
2019-02-08T01:39:38.300Z,1007.44
2019-02-08T01:39:38.900Z,1007.43
2019-02-08T01:39:39.500Z,1007.44
2019-02-08T01:40:32.979Z,1007.46
2019-02-08T01:40:33.553Z,1007.46
2019-02-08T01:40:34.153Z,1007.49
2019-02-08T01:40:34.751Z,1007.48
2019-02-08T01:40:35.353Z,1007.50
2019-02-08T01:40:35.952Z,1007.48
2019-02-08T01:40:36.552Z,1007.49
2019-02-08T01:40:37.152Z,1007.51
2019-02-08T01:41:31.654Z,1007.52
2019-02-08T01:41:32.229Z,1007.47
2019-02-08T01:41:32.827Z,1007.53
2019-02-08T01:41:33.428Z,1007.51
2019-02-08T01:41:34.028Z,1007.51
2019-02-08T01:41:34.627Z,1007.53
2019-02-08T01:41:35.228Z,1007.55
2019-02-08T01:41:35.827Z,1007.53
2019-02-08T01:42:30.330Z,1007.52
2019-02-08T01:42:30.903Z,1007.53
2019-02-08T01:42:31.504Z,1007.52
2019-02-08T01:42:32.105Z,1007.51
2019-02-08T01:42:32.702Z,1007.46
2019-02-08T01:42:33.302Z,1007.52
2019-02-08T01:42:33.903Z,1007.53
2019-02-08T01:42:34.501Z,1007.51
2019-02-08T01:43:27.984Z,1007.52
2019-02-08T01:43:28.559Z,1007.55
2019-02-08T01:43:29.156Z,1007.55
2019-02-08T01:43:29.755Z,1007.56
2019-02-08T01:43:30.355Z,1007.56
2019-02-08T01:43:30.956Z,1007.49
2019-02-08T01:43:31.555Z,1007.48
2019-02-08T01:43:32.155Z,1007.51
2019-02-08T01:44:26.658Z,1007.54
2019-02-08T01:44:27.230Z,1007.51
2019-02-08T01:44:27.830Z,1007.50
2019-02-08T01:44:28.430Z,1007.50
2019-02-08T01:44:29.030Z,1007.50
2019-02-08T01:44:29.629Z,1007.53
2019-02-08T01:44:30.230Z,1007.50
2019-02-08T01:44:30.830Z,1007.49
2019-02-08T01:45:25.332Z,1007.50
2019-02-08T01:45:25.909Z,1007.51
2019-02-08T01:45:26.506Z,1007.53
2019-02-08T01:45:27.107Z,1007.52
2019-02-08T01:45:27.704Z,1007.52
2019-02-08T01:45:28.303Z,1007.50
2019-02-08T01:45:28.903Z,1007.52
2019-02-08T01:45:29.502Z,1007.53
2019-02-08T01:46:24.008Z,1007.54
2019-02-08T01:46:24.582Z,1007.49
2019-02-08T01:46:25.184Z,1007.50
2019-02-08T01:46:25.783Z,1007.53
2019-02-08T01:46:26.382Z,1007.51
2019-02-08T01:46:26.981Z,1007.55
2019-02-08T01:46:27.581Z,1007.51
2019-02-08T01:46:28.182Z,1007.51
2019-02-08T01:47:22.687Z,1007.47
2019-02-08T01:47:23.258Z,1007.49
2019-02-08T01:47:23.861Z,1007.46
2019-02-08T01:47:24.457Z,1007.51
2019-02-08T01:47:25.058Z,1007.47
2019-02-08T01:47:25.657Z,1007.46
2019-02-08T01:47:26.257Z,1007.47
2019-02-08T01:47:26.857Z,1007.49
2019-02-08T01:48:20.335Z,1007.48
2019-02-08T01:48:20.911Z,1007.50
2019-02-08T01:48:21.510Z,1007.49
2019-02-08T01:48:22.111Z,1007.50
2019-02-08T01:48:22.711Z,1007.48
2019-02-08T01:48:23.310Z,1007.48
2019-02-08T01:48:23.910Z,1007.49
2019-02-08T01:48:24.510Z,1007.46
2019-02-08T01:49:19.013Z,1007.50
2019-02-08T01:49:19.586Z,1007.46
2019-02-08T01:49:20.185Z,1007.49
2019-02-08T01:49:20.785Z,1007.50
2019-02-08T01:49:21.400Z,1007.49
2019-02-08T01:49:21.985Z,1007.49
2019-02-08T01:49:22.584Z,1007.53
2019-02-08T01:49:23.183Z,1007.49
2019-02-08T01:50:17.686Z,1007.44
2019-02-08T01:50:18.263Z,1007.48
2019-02-08T01:50:18.860Z,1007.47
2019-02-08T01:50:19.461Z,1007.44
2019-02-08T01:50:20.059Z,1007.47
2019-02-08T01:50:20.660Z,1007.48
2019-02-08T01:50:21.259Z,1007.48
2019-02-08T01:50:21.860Z,1007.49
2019-02-08T01:51:15.339Z,1007.47
2019-02-08T01:51:15.915Z,1007.51
2019-02-08T01:51:16.519Z,1007.52
2019-02-08T01:51:17.113Z,1007.56
2019-02-08T01:51:17.712Z,1007.49
2019-02-08T01:51:18.315Z,1007.50
2019-02-08T01:51:18.912Z,1007.51
2019-02-08T01:51:19.513Z,1007.51
2019-02-08T01:52:14.015Z,1007.44
2019-02-08T01:52:14.587Z,1007.44
2019-02-08T01:52:15.189Z,1007.43
2019-02-08T01:52:15.788Z,1007.45
2019-02-08T01:52:16.387Z,1007.45
2019-02-08T01:52:16.988Z,1007.45
2019-02-08T01:52:17.587Z,1007.43
2019-02-08T01:52:18.189Z,1007.42
2019-02-08T01:53:12.178Z,1007.44
2019-02-08T01:53:12.756Z,1007.45
2019-02-08T01:53:13.352Z,1007.47
2019-02-08T01:53:13.951Z,1007.47
2019-02-08T01:53:14.555Z,1007.44
2019-02-08T01:53:15.158Z,1007.46
2019-02-08T01:53:15.751Z,1007.46
2019-02-08T01:54:30.215Z,1007.50
2019-02-08T01:54:30.782Z,1007.51
2019-02-08T01:54:31.381Z,1007.50
2019-02-08T01:54:31.980Z,1007.46
2019-02-08T01:54:32.583Z,1007.50
2019-02-08T01:54:33.182Z,1007.49
2019-02-08T01:54:33.781Z,1007.47